sensor_id;sensor_type;location;lat;lon;timestamp;P1;durP1;ratioP1;P2;durP2;ratioP2
63945;SDS011;50122;56.330;43.838;2022-11-15T00:01:28;3.38;;;1.40;;
63945;SDS011;50122;56.330;43.838;2022-11-15T00:03:55;4.18;;;1.40;;
63945;SDS011;50122;56.330;43.838;2022-11-15T00:06:21;4.53;;;1.20;;
63945;SDS011;50122;56.330;43.838;2022-11-15T00:08:48;2.63;;;1.40;;
63945;SDS011;50122;56.330;43.838;2022-11-15T00:11:16;5.82;;;1.48;;
63945;SDS011;50122;56.330;43.838;2022-11-15T00:13:42;1.25;;;1.15;;
63945;SDS011;50122;56.330;43.838;2022-11-15T00:16:09;3.85;;;1.33;;
63945;SDS011;50122;56.330;43.838;2022-11-15T00:18:37;3.40;;;1.23;;
63945;SDS011;50122;56.330;43.838;2022-11-15T00:21:10;1.95;;;1.33;;
63945;SDS011;50122;56.330;43.838;2022-11-15T00:23:38;3.55;;;1.30;;
63945;SDS011;50122;56.330;43.838;2022-11-15T00:26:06;1.15;;;1.13;;
63945;SDS011;50122;56.330;43.838;2022-11-15T00:28:33;4.10;;;1.30;;
63945;SDS011;50122;56.330;43.838;2022-11-15T00:31:01;1.23;;;1.10;;
63945;SDS011;50122;56.330;43.838;2022-11-15T00:33:32;1.10;;;1.00;;
63945;SDS011;50122;56.330;43.838;2022-11-15T00:36:00;1.58;;;1.17;;
63945;SDS011;50122;56.330;43.838;2022-11-15T00:38:32;1.30;;;1.20;;
63945;SDS011;50122;56.330;43.838;2022-11-15T00:41:04;2.95;;;1.23;;
63945;SDS011;50122;56.330;43.838;2022-11-15T00:43:35;1.00;;;1.00;;
63945;SDS011;50122;56.330;43.838;2022-11-15T00:46:02;4.82;;;1.40;;
63945;SDS011;50122;56.330;43.838;2022-11-15T00:48:29;5.43;;;1.25;;
63945;SDS011;50122;56.330;43.838;2022-11-15T00:50:56;1.40;;;1.13;;
63945;SDS011;50122;56.330;43.838;2022-11-15T00:53:23;2.25;;;1.48;;
63945;SDS011;50122;56.330;43.838;2022-11-15T00:55:52;1.88;;;1.27;;
63945;SDS011;50122;56.330;43.838;2022-11-15T00:58:19;1.45;;;1.20;;
63945;SDS011;50122;56.330;43.838;2022-11-15T01:00:46;1.45;;;1.20;;
63945;SDS011;50122;56.330;43.838;2022-11-15T01:03:12;1.85;;;1.30;;
63945;SDS011;50122;56.330;43.838;2022-11-15T01:05:41;5.90;;;1.20;;
63945;SDS011;50122;56.330;43.838;2022-11-15T01:08:11;1.20;;;1.02;;
63945;SDS011;50122;56.330;43.838;2022-11-15T01:10:39;1.92;;;1.10;;
63945;SDS011;50122;56.330;43.838;2022-11-15T01:13:06;2.38;;;1.20;;
63945;SDS011;50122;56.330;43.838;2022-11-15T01:15:33;1.13;;;1.02;;
63945;SDS011;50122;56.330;43.838;2022-11-15T01:18:00;6.40;;;1.40;;
63945;SDS011;50122;56.330;43.838;2022-11-15T01:20:26;1.58;;;1.20;;
63945;SDS011;50122;56.330;43.838;2022-11-15T01:22:53;2.67;;;1.20;;
63945;SDS011;50122;56.330;43.838;2022-11-15T01:25:21;2.97;;;1.40;;
63945;SDS011;50122;56.330;43.838;2022-11-15T01:27:47;2.10;;;1.20;;
63945;SDS011;50122;56.330;43.838;2022-11-15T01:30:14;2.42;;;1.13;;
63945;SDS011;50122;56.330;43.838;2022-11-15T01:32:41;2.28;;;1.10;;
63945;SDS011;50122;56.330;43.838;2022-11-15T01:35:08;2.25;;;1.15;;
63945;SDS011;50122;56.330;43.838;2022-11-15T01:37:34;1.00;;;1.00;;
63945;SDS011;50122;56.330;43.838;2022-11-15T01:40:02;1.35;;;1.10;;
63945;SDS011;50122;56.330;43.838;2022-11-15T01:42:29;2.50;;;1.48;;
63945;SDS011;50122;56.330;43.838;2022-11-15T01:44:56;1.88;;;1.20;;
63945;SDS011;50122;56.330;43.838;2022-11-15T01:47:24;3.53;;;1.10;;
63945;SDS011;50122;56.330;43.838;2022-11-15T01:50:02;1.40;;;1.30;;
63945;SDS011;50122;56.330;43.838;2022-11-15T01:52:33;1.42;;;1.20;;
63945;SDS011;50122;56.330;43.838;2022-11-15T01:55:08;3.90;;;1.48;;
63945;SDS011;50122;56.330;43.838;2022-11-15T01:57:46;5.00;;;1.40;;
63945;SDS011;50122;56.330;43.838;2022-11-15T02:00:16;2.53;;;1.17;;
63945;SDS011;50122;56.330;43.838;2022-11-15T02:02:43;1.33;;;1.20;;
63945;SDS011;50122;56.330;43.838;2022-11-15T02:05:10;4.43;;;1.38;;
63945;SDS011;50122;56.330;43.838;2022-11-15T02:07:37;2.25;;;1.35;;
63945;SDS011;50122;56.330;43.838;2022-11-15T02:10:08;4.32;;;1.40;;
63945;SDS011;50122;56.330;43.838;2022-11-15T02:12:39;2.47;;;1.25;;
63945;SDS011;50122;56.330;43.838;2022-11-15T02:15:06;3.05;;;1.45;;
63945;SDS011;50122;56.330;43.838;2022-11-15T02:20:33;3.35;;;1.30;;
63945;SDS011;50122;56.330;43.838;2022-11-15T02:29:07;1.38;;;1.27;;
63945;SDS011;50122;56.330;43.838;2022-11-15T02:31:46;3.08;;;1.58;;
63945;SDS011;50122;56.330;43.838;2022-11-15T02:37:17;3.97;;;1.80;;
63945;SDS011;50122;56.330;43.838;2022-11-15T02:40:07;3.08;;;1.35;;
63945;SDS011;50122;56.330;43.838;2022-11-15T02:42:45;1.25;;;1.13;;
63945;SDS011;50122;56.330;43.838;2022-11-15T02:45:41;2.13;;;1.38;;
63945;SDS011;50122;56.330;43.838;2022-11-15T02:48:14;2.38;;;1.52;;
63945;SDS011;50122;56.330;43.838;2022-11-15T18:29:23;13.23;;;6.30;;
63945;SDS011;50122;56.330;43.838;2022-11-15T18:31:50;11.40;;;6.13;;
63945;SDS011;50122;56.330;43.838;2022-11-15T18:34:25;13.82;;;6.78;;
63945;SDS011;50122;56.330;43.838;2022-11-15T18:36:58;18.23;;;6.63;;
63945;SDS011;50122;56.330;43.838;2022-11-15T18:39:25;12.00;;;6.43;;
63945;SDS011;50122;56.330;43.838;2022-11-15T18:41:52;13.77;;;6.97;;
63945;SDS011;50122;56.330;43.838;2022-11-15T18:44:39;15.98;;;7.88;;
63945;SDS011;50122;56.330;43.838;2022-11-15T18:47:08;15.30;;;8.30;;
63945;SDS011;50122;56.330;43.838;2022-11-15T18:49:34;11.63;;;6.07;;
63945;SDS011;50122;56.330;43.838;2022-11-15T18:52:02;16.77;;;7.28;;
63945;SDS011;50122;56.330;43.838;2022-11-15T18:54:28;13.30;;;6.38;;
63945;SDS011;50122;56.330;43.838;2022-11-15T18:56:57;12.07;;;6.65;;
63945;SDS011;50122;56.330;43.838;2022-11-15T18:59:23;10.95;;;5.15;;
63945;SDS011;50122;56.330;43.838;2022-11-15T19:01:52;12.95;;;7.50;;
63945;SDS011;50122;56.330;43.838;2022-11-15T19:04:19;14.05;;;7.53;;
63945;SDS011;50122;56.330;43.838;2022-11-15T19:06:48;14.73;;;7.72;;
63945;SDS011;50122;56.330;43.838;2022-11-15T19:09:16;13.52;;;6.40;;
63945;SDS011;50122;56.330;43.838;2022-11-15T19:11:44;13.73;;;6.35;;
63945;SDS011;50122;56.330;43.838;2022-11-15T19:14:13;14.48;;;6.03;;
63945;SDS011;50122;56.330;43.838;2022-11-15T19:16:45;13.73;;;6.25;;
63945;SDS011;50122;56.330;43.838;2022-11-15T19:19:21;10.75;;;5.20;;
63945;SDS011;50122;56.330;43.838;2022-11-15T19:21:50;11.88;;;5.82;;
63945;SDS011;50122;56.330;43.838;2022-11-15T19:24:21;13.75;;;5.50;;
63945;SDS011;50122;56.330;43.838;2022-11-15T19:26:48;10.13;;;5.15;;
63945;SDS011;50122;56.330;43.838;2022-11-15T19:29:15;11.00;;;5.65;;
63945;SDS011;50122;56.330;43.838;2022-11-15T19:31:44;13.32;;;4.68;;
63945;SDS011;50122;56.330;43.838;2022-11-15T19:34:13;11.88;;;5.55;;
63945;SDS011;50122;56.330;43.838;2022-11-15T19:36:43;12.45;;;5.15;;
63945;SDS011;50122;56.330;43.838;2022-11-15T19:39:12;10.35;;;5.30;;
63945;SDS011;50122;56.330;43.838;2022-11-15T19:41:48;10.32;;;5.65;;
63945;SDS011;50122;56.330;43.838;2022-11-15T19:44:15;12.60;;;5.40;;
63945;SDS011;50122;56.330;43.838;2022-11-15T19:46:42;10.98;;;5.53;;
63945;SDS011;50122;56.330;43.838;2022-11-15T19:49:12;12.10;;;4.68;;
63945;SDS011;50122;56.330;43.838;2022-11-15T19:51:39;12.05;;;5.32;;
63945;SDS011;50122;56.330;43.838;2022-11-15T19:54:08;10.82;;;4.90;;
63945;SDS011;50122;56.330;43.838;2022-11-15T19:56:36;11.40;;;5.20;;
63945;SDS011;50122;56.330;43.838;2022-11-15T19:59:12;14.68;;;4.82;;
63945;SDS011;50122;56.330;43.838;2022-11-15T20:01:39;12.48;;;4.88;;
63945;SDS011;50122;56.330;43.838;2022-11-15T20:04:10;10.70;;;5.65;;
63945;SDS011;50122;56.330;43.838;2022-11-15T20:06:38;13.93;;;6.20;;
63945;SDS011;50122;56.330;43.838;2022-11-15T20:09:07;14.50;;;6.25;;
63945;SDS011;50122;56.330;43.838;2022-11-15T20:11:38;14.73;;;6.40;;
63945;SDS011;50122;56.330;43.838;2022-11-15T20:14:07;17.30;;;8.45;;
63945;SDS011;50122;56.330;43.838;2022-11-15T20:16:38;24.35;;;10.35;;
63945;SDS011;50122;56.330;43.838;2022-11-15T20:19:06;19.63;;;9.60;;
63945;SDS011;50122;56.330;43.838;2022-11-15T20:21:37;22.98;;;9.55;;
63945;SDS011;50122;56.330;43.838;2022-11-15T20:24:03;19.58;;;9.05;;
63945;SDS011;50122;56.330;43.838;2022-11-15T20:26:31;17.42;;;8.25;;
63945;SDS011;50122;56.330;43.838;2022-11-15T20:28:58;19.10;;;8.75;;
63945;SDS011;50122;56.330;43.838;2022-11-15T20:31:26;17.90;;;8.23;;
63945;SDS011;50122;56.330;43.838;2022-11-15T20:33:54;15.52;;;6.97;;
63945;SDS011;50122;56.330;43.838;2022-11-15T20:36:21;12.30;;;6.43;;
63945;SDS011;50122;56.330;43.838;2022-11-15T20:38:47;11.27;;;5.90;;
63945;SDS011;50122;56.330;43.838;2022-11-15T20:41:14;12.55;;;6.63;;
63945;SDS011;50122;56.330;43.838;2022-11-15T20:43:41;12.85;;;6.43;;
63945;SDS011;50122;56.330;43.838;2022-11-15T20:46:09;11.38;;;6.68;;
63945;SDS011;50122;56.330;43.838;2022-11-15T20:48:37;14.32;;;6.60;;
63945;SDS011;50122;56.330;43.838;2022-11-15T20:51:05;13.65;;;7.03;;
63945;SDS011;50122;56.330;43.838;2022-11-15T20:53:43;16.38;;;7.70;;
63945;SDS011;50122;56.330;43.838;2022-11-15T20:56:12;12.90;;;7.53;;
63945;SDS011;50122;56.330;43.838;2022-11-15T20:58:43;14.18;;;7.70;;
63945;SDS011;50122;56.330;43.838;2022-11-15T21:01:16;16.75;;;8.45;;
63945;SDS011;50122;56.330;43.838;2022-11-15T21:03:52;13.55;;;8.50;;
63945;SDS011;50122;56.330;43.838;2022-11-15T21:06:20;14.60;;;8.60;;
63945;SDS011;50122;56.330;43.838;2022-11-15T21:08:48;12.18;;;7.53;;
63945;SDS011;50122;56.330;43.838;2022-11-15T21:11:35;13.45;;;6.93;;
63945;SDS011;50122;56.330;43.838;2022-11-15T21:14:21;8.45;;;4.78;;
63945;SDS011;50122;56.330;43.838;2022-11-15T21:16:47;9.10;;;5.57;;
63945;SDS011;50122;56.330;43.838;2022-11-15T21:19:14;10.98;;;4.95;;
63945;SDS011;50122;56.330;43.838;2022-11-15T21:21:41;10.25;;;5.45;;
63945;SDS011;50122;56.330;43.838;2022-11-15T21:24:08;11.50;;;4.90;;
63945;SDS011;50122;56.330;43.838;2022-11-15T21:26:35;9.05;;;5.03;;
63945;SDS011;50122;56.330;43.838;2022-11-15T21:29:02;8.32;;;5.03;;
63945;SDS011;50122;56.330;43.838;2022-11-15T21:31:30;11.10;;;5.45;;
63945;SDS011;50122;56.330;43.838;2022-11-15T21:33:59;9.30;;;5.25;;
63945;SDS011;50122;56.330;43.838;2022-11-15T21:36:27;9.75;;;5.68;;
63945;SDS011;50122;56.330;43.838;2022-11-15T21:38:55;10.68;;;5.40;;
63945;SDS011;50122;56.330;43.838;2022-11-15T21:41:21;7.85;;;4.55;;
63945;SDS011;50122;56.330;43.838;2022-11-15T21:43:48;8.75;;;5.18;;
63945;SDS011;50122;56.330;43.838;2022-11-15T21:46:17;9.68;;;5.40;;
63945;SDS011;50122;56.330;43.838;2022-11-15T21:48:44;10.05;;;5.07;;
63945;SDS011;50122;56.330;43.838;2022-11-15T21:51:10;9.38;;;5.07;;
63945;SDS011;50122;56.330;43.838;2022-11-15T21:53:37;8.45;;;5.28;;
63945;SDS011;50122;56.330;43.838;2022-11-15T21:56:04;13.95;;;6.13;;
63945;SDS011;50122;56.330;43.838;2022-11-15T21:58:32;10.23;;;5.38;;
63945;SDS011;50122;56.330;43.838;2022-11-15T22:00:59;13.02;;;5.97;;
63945;SDS011;50122;56.330;43.838;2022-11-15T22:03:45;11.15;;;5.53;;
63945;SDS011;50122;56.330;43.838;2022-11-15T22:06:13;10.52;;;5.97;;
63945;SDS011;50122;56.330;43.838;2022-11-15T22:08:43;11.73;;;5.28;;
63945;SDS011;50122;56.330;43.838;2022-11-15T22:11:11;10.27;;;5.25;;
63945;SDS011;50122;56.330;43.838;2022-11-15T22:13:39;14.27;;;5.60;;
63945;SDS011;50122;56.330;43.838;2022-11-15T22:16:06;10.77;;;5.00;;
63945;SDS011;50122;56.330;43.838;2022-11-15T22:18:33;11.80;;;5.45;;
63945;SDS011;50122;56.330;43.838;2022-11-15T22:21:03;12.45;;;5.30;;
63945;SDS011;50122;56.330;43.838;2022-11-15T22:23:32;10.98;;;5.10;;
63945;SDS011;50122;56.330;43.838;2022-11-15T22:25:59;11.00;;;5.57;;
63945;SDS011;50122;56.330;43.838;2022-11-15T22:28:26;10.25;;;5.95;;
63945;SDS011;50122;56.330;43.838;2022-11-15T22:30:54;11.20;;;5.20;;
63945;SDS011;50122;56.330;43.838;2022-11-15T22:33:22;9.57;;;5.13;;
63945;SDS011;50122;56.330;43.838;2022-11-15T22:35:50;9.15;;;5.20;;
63945;SDS011;50122;56.330;43.838;2022-11-15T22:38:18;7.60;;;4.55;;
63945;SDS011;50122;56.330;43.838;2022-11-15T22:40:45;9.07;;;4.20;;
63945;SDS011;50122;56.330;43.838;2022-11-15T22:43:18;8.85;;;4.70;;
63945;SDS011;50122;56.330;43.838;2022-11-15T22:45:46;8.85;;;5.30;;
63945;SDS011;50122;56.330;43.838;2022-11-15T22:48:33;9.85;;;4.80;;
63945;SDS011;50122;56.330;43.838;2022-11-15T22:51:02;9.10;;;4.88;;
63945;SDS011;50122;56.330;43.838;2022-11-15T22:53:30;8.10;;;4.65;;
63945;SDS011;50122;56.330;43.838;2022-11-15T22:55:58;8.57;;;4.18;;
63945;SDS011;50122;56.330;43.838;2022-11-15T22:58:27;8.60;;;3.90;;
63945;SDS011;50122;56.330;43.838;2022-11-15T23:00:56;9.25;;;4.45;;
63945;SDS011;50122;56.330;43.838;2022-11-15T23:03:24;7.85;;;4.30;;
63945;SDS011;50122;56.330;43.838;2022-11-15T23:05:52;7.80;;;4.40;;
63945;SDS011;50122;56.330;43.838;2022-11-15T23:08:20;12.98;;;6.32;;
63945;SDS011;50122;56.330;43.838;2022-11-15T23:10:48;13.00;;;7.75;;
63945;SDS011;50122;56.330;43.838;2022-11-15T23:13:34;12.60;;;6.78;;
63945;SDS011;50122;56.330;43.838;2022-11-15T23:16:02;11.60;;;7.03;;
63945;SDS011;50122;56.330;43.838;2022-11-15T23:19:04;11.80;;;7.07;;
63945;SDS011;50122;56.330;43.838;2022-11-15T23:24:19;9.57;;;5.57;;
63945;SDS011;50122;56.330;43.838;2022-11-15T23:26:47;12.25;;;6.13;;
63945;SDS011;50122;56.330;43.838;2022-11-15T23:29:16;9.95;;;5.93;;
63945;SDS011;50122;56.330;43.838;2022-11-15T23:31:44;10.25;;;5.85;;
63945;SDS011;50122;56.330;43.838;2022-11-15T23:34:31;11.48;;;5.75;;
63945;SDS011;50122;56.330;43.838;2022-11-15T23:37:01;11.93;;;6.22;;
63945;SDS011;50122;56.330;43.838;2022-11-15T23:39:28;10.65;;;6.30;;
63945;SDS011;50122;56.330;43.838;2022-11-15T23:41:55;13.80;;;7.40;;
63945;SDS011;50122;56.330;43.838;2022-11-15T23:44:22;12.32;;;6.50;;
63945;SDS011;50122;56.330;43.838;2022-11-15T23:46:49;13.60;;;7.18;;
63945;SDS011;50122;56.330;43.838;2022-11-15T23:49:16;11.45;;;6.55;;
63945;SDS011;50122;56.330;43.838;2022-11-15T23:51:44;15.48;;;7.07;;
63945;SDS011;50122;56.330;43.838;2022-11-15T23:54:11;10.60;;;5.82;;
63945;SDS011;50122;56.330;43.838;2022-11-15T23:56:38;12.10;;;6.78;;
63945;SDS011;50122;56.330;43.838;2022-11-15T23:59:05;11.65;;;6.70;;
